Airport View

Enter AWOS ICAO identifier for current METAR.

ex. KFNL

KMER 111945Z 13006KT 2SM FG OVC006 12/12 A3027

11 Dec 2019 20:20

Frequency: 124.475

Phone: 209-725-0104

Other Area AWOS: KMCE - KMOD - KMAE - KO22

TAF AMD KMER 112010Z 1120/1218 13005KT 2SM BR BKN006 OVC200 FM112100 VRB04KT 4SM HZ BKN100 FM120700 12007KT 1 1/2SM BR OVC050 FM121000 13006KT 1/4SM FG OVC002 FM121700 12004KT 1/2SM FG OVC003